sensor_id;sensor_type;location;lat;lon;timestamp;P1;durP1;ratioP1;P2;durP2;ratioP2
15966;SDS011;15175;48.154;11.534;2024-02-28T00:02:12;24.60;;;12.05;;
15966;SDS011;15175;48.154;11.534;2024-02-28T00:08:15;20.70;;;11.18;;
15966;SDS011;15175;48.154;11.534;2024-02-28T00:14:19;25.45;;;11.93;;
15966;SDS011;15175;48.154;11.534;2024-02-28T00:20:21;21.23;;;10.60;;
15966;SDS011;15175;48.154;11.534;2024-02-28T00:26:28;22.75;;;11.68;;
15966;SDS011;15175;48.154;11.534;2024-02-28T00:32:31;21.92;;;11.55;;
15966;SDS011;15175;48.154;11.534;2024-02-28T00:38:33;22.88;;;12.13;;
15966;SDS011;15175;48.154;11.534;2024-02-28T00:44:37;21.65;;;11.63;;
15966;SDS011;15175;48.154;11.534;2024-02-28T00:50:42;24.80;;;12.40;;
15966;SDS011;15175;48.154;11.534;2024-02-28T00:56:45;23.70;;;12.88;;
15966;SDS011;15175;48.154;11.534;2024-02-28T01:02:48;26.98;;;14.35;;
15966;SDS011;15175;48.154;11.534;2024-02-28T01:08:50;26.05;;;12.93;;
15966;SDS011;15175;48.154;11.534;2024-02-28T01:14:53;24.80;;;13.27;;
15966;SDS011;15175;48.154;11.534;2024-02-28T01:20:56;27.05;;;12.82;;
15966;SDS011;15175;48.154;11.534;2024-02-28T01:26:59;26.23;;;12.52;;
15966;SDS011;15175;48.154;11.534;2024-02-28T01:33:01;28.30;;;12.80;;
15966;SDS011;15175;48.154;11.534;2024-02-28T01:39:05;24.75;;;12.10;;
15966;SDS011;15175;48.154;11.534;2024-02-28T01:45:08;27.40;;;13.00;;
15966;SDS011;15175;48.154;11.534;2024-02-28T01:51:14;26.98;;;13.88;;
15966;SDS011;15175;48.154;11.534;2024-02-28T01:57:19;26.63;;;13.02;;
15966;SDS011;15175;48.154;11.534;2024-02-28T02:03:21;25.85;;;12.57;;
15966;SDS011;15175;48.154;11.534;2024-02-28T02:09:24;25.90;;;12.90;;
15966;SDS011;15175;48.154;11.534;2024-02-28T02:15:29;25.85;;;13.05;;
15966;SDS011;15175;48.154;11.534;2024-02-28T02:21:34;24.17;;;12.55;;
15966;SDS011;15175;48.154;11.534;2024-02-28T02:27:43;25.23;;;12.55;;
15966;SDS011;15175;48.154;11.534;2024-02-28T02:33:45;28.42;;;13.55;;
15966;SDS011;15175;48.154;11.534;2024-02-28T02:39:47;25.00;;;12.70;;
15966;SDS011;15175;48.154;11.534;2024-02-28T02:45:51;24.95;;;12.80;;
15966;SDS011;15175;48.154;11.534;2024-02-28T02:51:53;27.15;;;13.30;;
15966;SDS011;15175;48.154;11.534;2024-02-28T02:57:55;25.38;;;13.82;;
15966;SDS011;15175;48.154;11.534;2024-02-28T03:03:59;28.00;;;12.95;;
15966;SDS011;15175;48.154;11.534;2024-02-28T03:10:01;24.70;;;12.75;;
15966;SDS011;15175;48.154;11.534;2024-02-28T03:16:03;29.02;;;14.18;;
15966;SDS011;15175;48.154;11.534;2024-02-28T03:22:07;29.80;;;14.00;;
15966;SDS011;15175;48.154;11.534;2024-02-28T03:28:09;27.55;;;13.88;;
15966;SDS011;15175;48.154;11.534;2024-02-28T03:34:11;27.05;;;14.25;;
15966;SDS011;15175;48.154;11.534;2024-02-28T03:40:15;29.05;;;14.10;;
15966;SDS011;15175;48.154;11.534;2024-02-28T03:46:17;27.52;;;13.88;;
15966;SDS011;15175;48.154;11.534;2024-02-28T03:52:19;31.58;;;15.20;;
15966;SDS011;15175;48.154;11.534;2024-02-28T03:58:23;30.02;;;14.93;;
15966;SDS011;15175;48.154;11.534;2024-02-28T04:04:26;29.45;;;14.73;;
15966;SDS011;15175;48.154;11.534;2024-02-28T04:10:28;29.38;;;14.55;;
15966;SDS011;15175;48.154;11.534;2024-02-28T04:16:31;33.05;;;15.38;;
15966;SDS011;15175;48.154;11.534;2024-02-28T04:22:34;33.25;;;15.82;;
15966;SDS011;15175;48.154;11.534;2024-02-28T04:28:36;34.03;;;15.82;;
15966;SDS011;15175;48.154;11.534;2024-02-28T04:34:39;32.47;;;14.60;;
15966;SDS011;15175;48.154;11.534;2024-02-28T04:40:42;29.77;;;15.00;;
15966;SDS011;15175;48.154;11.534;2024-02-28T04:46:44;33.88;;;16.17;;
15966;SDS011;15175;48.154;11.534;2024-02-28T04:52:48;32.38;;;15.90;;
15966;SDS011;15175;48.154;11.534;2024-02-28T04:58:50;33.72;;;15.70;;
15966;SDS011;15175;48.154;11.534;2024-02-28T05:04:52;40.83;;;18.80;;
15966;SDS011;15175;48.154;11.534;2024-02-28T05:10:56;35.53;;;16.17;;
15966;SDS011;15175;48.154;11.534;2024-02-28T05:16:58;30.25;;;14.77;;
15966;SDS011;15175;48.154;11.534;2024-02-28T05:23:00;33.58;;;16.25;;
15966;SDS011;15175;48.154;11.534;2024-02-28T05:29:04;35.58;;;15.43;;
15966;SDS011;15175;48.154;11.534;2024-02-28T05:35:08;32.55;;;15.95;;
15966;SDS011;15175;48.154;11.534;2024-02-28T05:41:11;38.30;;;18.48;;
15966;SDS011;15175;48.154;11.534;2024-02-28T05:47:15;38.25;;;15.73;;
15966;SDS011;15175;48.154;11.534;2024-02-28T05:53:17;33.42;;;16.35;;
15966;SDS011;15175;48.154;11.534;2024-02-28T05:59:20;33.08;;;16.20;;
15966;SDS011;15175;48.154;11.534;2024-02-28T06:05:23;31.50;;;15.00;;
15966;SDS011;15175;48.154;11.534;2024-02-28T06:11:26;33.10;;;17.02;;
15966;SDS011;15175;48.154;11.534;2024-02-28T06:17:28;39.70;;;17.15;;
15966;SDS011;15175;48.154;11.534;2024-02-28T06:23:31;38.22;;;16.65;;
15966;SDS011;15175;48.154;11.534;2024-02-28T06:29:34;39.10;;;16.40;;
15966;SDS011;15175;48.154;11.534;2024-02-28T06:35:47;35.05;;;16.52;;
15966;SDS011;15175;48.154;11.534;2024-02-28T06:41:49;39.17;;;18.48;;
15966;SDS011;15175;48.154;11.534;2024-02-28T06:47:52;34.83;;;16.38;;
15966;SDS011;15175;48.154;11.534;2024-02-28T06:53:55;34.03;;;16.52;;
15966;SDS011;15175;48.154;11.534;2024-02-28T06:59:58;47.67;;;16.52;;
15966;SDS011;15175;48.154;11.534;2024-02-28T07:06:00;45.22;;;17.90;;
15966;SDS011;15175;48.154;11.534;2024-02-28T07:12:04;46.35;;;18.42;;
15966;SDS011;15175;48.154;11.534;2024-02-28T07:18:06;44.50;;;19.35;;
15966;SDS011;15175;48.154;11.534;2024-02-28T07:24:09;47.90;;;19.50;;
15966;SDS011;15175;48.154;11.534;2024-02-28T07:30:13;40.95;;;17.23;;
15966;SDS011;15175;48.154;11.534;2024-02-28T07:36:15;44.25;;;18.52;;
15966;SDS011;15175;48.154;11.534;2024-02-28T07:42:17;46.20;;;19.52;;
15966;SDS011;15175;48.154;11.534;2024-02-28T07:48:21;52.08;;;19.95;;
15966;SDS011;15175;48.154;11.534;2024-02-28T07:54:23;50.05;;;19.92;;
15966;SDS011;15175;48.154;11.534;2024-02-28T08:00:25;51.75;;;20.38;;
15966;SDS011;15175;48.154;11.534;2024-02-28T08:06:30;51.63;;;20.17;;
15966;SDS011;15175;48.154;11.534;2024-02-28T08:12:33;47.83;;;19.48;;
15966;SDS011;15175;48.154;11.534;2024-02-28T08:18:35;51.38;;;21.58;;
15966;SDS011;15175;48.154;11.534;2024-02-28T08:24:39;48.28;;;20.02;;
15966;SDS011;15175;48.154;11.534;2024-02-28T08:30:41;49.40;;;20.58;;
15966;SDS011;15175;48.154;11.534;2024-02-28T08:36:43;50.78;;;19.30;;
15966;SDS011;15175;48.154;11.534;2024-02-28T08:42:47;47.20;;;19.80;;
15966;SDS011;15175;48.154;11.534;2024-02-28T08:48:53;53.28;;;24.02;;
15966;SDS011;15175;48.154;11.534;2024-02-28T08:54:55;44.22;;;19.50;;
15966;SDS011;15175;48.154;11.534;2024-02-28T09:00:59;45.08;;;19.90;;
15966;SDS011;15175;48.154;11.534;2024-02-28T09:07:01;50.88;;;20.52;;
15966;SDS011;15175;48.154;11.534;2024-02-28T09:13:03;59.17;;;21.45;;
15966;SDS011;15175;48.154;11.534;2024-02-28T09:25:10;50.78;;;19.50;;
15966;SDS011;15175;48.154;11.534;2024-02-28T09:31:12;51.13;;;21.70;;
15966;SDS011;15175;48.154;11.534;2024-02-28T09:37:17;60.95;;;20.88;;
15966;SDS011;15175;48.154;11.534;2024-02-28T09:43:23;53.15;;;22.33;;
15966;SDS011;15175;48.154;11.534;2024-02-28T09:49:30;46.60;;;20.15;;
15966;SDS011;15175;48.154;11.534;2024-02-28T10:01:43;49.50;;;20.88;;
15966;SDS011;15175;48.154;11.534;2024-02-28T10:07:55;53.40;;;23.38;;
15966;SDS011;15175;48.154;11.534;2024-02-28T10:13:58;47.47;;;22.17;;
15966;SDS011;15175;48.154;11.534;2024-02-28T10:20:02;49.63;;;20.23;;
15966;SDS011;15175;48.154;11.534;2024-02-28T10:26:04;49.35;;;20.98;;
15966;SDS011;15175;48.154;11.534;2024-02-28T10:32:08;51.67;;;20.75;;
15966;SDS011;15175;48.154;11.534;2024-02-28T10:38:11;45.28;;;21.35;;
15966;SDS011;15175;48.154;11.534;2024-02-28T10:44:14;51.72;;;21.65;;
15966;SDS011;15175;48.154;11.534;2024-02-28T10:50:19;52.08;;;20.77;;
15966;SDS011;15175;48.154;11.534;2024-02-28T10:56:21;48.88;;;19.45;;
15966;SDS011;15175;48.154;11.534;2024-02-28T11:02:24;44.63;;;20.35;;
15966;SDS011;15175;48.154;11.534;2024-02-28T11:08:29;48.17;;;21.13;;
15966;SDS011;15175;48.154;11.534;2024-02-28T11:14:31;47.58;;;18.55;;
15966;SDS011;15175;48.154;11.534;2024-02-28T11:20:34;42.30;;;19.48;;
15966;SDS011;15175;48.154;11.534;2024-02-28T11:26:37;49.72;;;19.90;;
15966;SDS011;15175;48.154;11.534;2024-02-28T11:32:39;44.80;;;20.10;;
15966;SDS011;15175;48.154;11.534;2024-02-28T11:38:42;45.92;;;19.63;;
15966;SDS011;15175;48.154;11.534;2024-02-28T11:44:53;45.50;;;19.23;;
15966;SDS011;15175;48.154;11.534;2024-02-28T11:50:58;43.95;;;19.05;;
15966;SDS011;15175;48.154;11.534;2024-02-28T11:57:00;44.35;;;19.92;;
15966;SDS011;15175;48.154;11.534;2024-02-28T12:03:07;46.92;;;20.52;;
15966;SDS011;15175;48.154;11.534;2024-02-28T12:09:09;41.72;;;18.33;;
15966;SDS011;15175;48.154;11.534;2024-02-28T12:15:14;41.53;;;19.30;;
15966;SDS011;15175;48.154;11.534;2024-02-28T12:21:19;42.78;;;19.08;;
15966;SDS011;15175;48.154;11.534;2024-02-28T12:27:22;45.42;;;19.27;;
15966;SDS011;15175;48.154;11.534;2024-02-28T12:33:24;40.10;;;18.50;;
15966;SDS011;15175;48.154;11.534;2024-02-28T12:39:28;37.70;;;18.35;;
15966;SDS011;15175;48.154;11.534;2024-02-28T12:45:30;36.72;;;17.50;;
15966;SDS011;15175;48.154;11.534;2024-02-28T12:51:36;41.78;;;18.40;;
15966;SDS011;15175;48.154;11.534;2024-02-28T12:57:41;42.88;;;18.67;;
15966;SDS011;15175;48.154;11.534;2024-02-28T13:03:44;43.03;;;17.55;;
15966;SDS011;15175;48.154;11.534;2024-02-28T13:09:46;41.63;;;17.55;;
15966;SDS011;15175;48.154;11.534;2024-02-28T13:15:50;39.22;;;18.38;;
15966;SDS011;15175;48.154;11.534;2024-02-28T13:21:53;44.28;;;17.67;;
15966;SDS011;15175;48.154;11.534;2024-02-28T13:27:56;39.42;;;19.25;;
15966;SDS011;15175;48.154;11.534;2024-02-28T13:34:01;38.60;;;18.23;;
15966;SDS011;15175;48.154;11.534;2024-02-28T13:40:04;39.00;;;19.27;;
15966;SDS011;15175;48.154;11.534;2024-02-28T13:46:07;35.60;;;16.52;;
15966;SDS011;15175;48.154;11.534;2024-02-28T13:52:12;38.80;;;18.73;;
15966;SDS011;15175;48.154;11.534;2024-02-28T13:58:15;40.42;;;17.58;;
15966;SDS011;15175;48.154;11.534;2024-02-28T14:04:24;34.67;;;17.73;;
15966;SDS011;15175;48.154;11.534;2024-02-28T14:10:27;40.40;;;17.52;;
15966;SDS011;15175;48.154;11.534;2024-02-28T14:16:30;37.45;;;18.05;;
15966;SDS011;15175;48.154;11.534;2024-02-28T14:22:33;41.67;;;17.65;;
15966;SDS011;15175;48.154;11.534;2024-02-28T14:28:37;42.75;;;18.02;;
15966;SDS011;15175;48.154;11.534;2024-02-28T14:34:39;43.15;;;19.38;;
15966;SDS011;15175;48.154;11.534;2024-02-28T14:40:41;43.30;;;18.42;;
15966;SDS011;15175;48.154;11.534;2024-02-28T14:46:45;35.90;;;16.50;;
15966;SDS011;15175;48.154;11.534;2024-02-28T14:52:47;37.38;;;17.40;;
15966;SDS011;15175;48.154;11.534;2024-02-28T14:58:49;37.47;;;16.30;;
15966;SDS011;15175;48.154;11.534;2024-02-28T15:04:53;40.03;;;18.65;;
15966;SDS011;15175;48.154;11.534;2024-02-28T15:10:55;38.08;;;17.63;;
15966;SDS011;15175;48.154;11.534;2024-02-28T15:16:58;34.75;;;16.23;;
15966;SDS011;15175;48.154;11.534;2024-02-28T15:23:03;34.45;;;17.50;;
15966;SDS011;15175;48.154;11.534;2024-02-28T15:29:05;37.80;;;16.25;;
15966;SDS011;15175;48.154;11.534;2024-02-28T15:35:08;37.67;;;17.80;;
15966;SDS011;15175;48.154;11.534;2024-02-28T15:41:13;37.00;;;15.63;;
15966;SDS011;15175;48.154;11.534;2024-02-28T15:47:15;35.00;;;16.65;;
15966;SDS011;15175;48.154;11.534;2024-02-28T15:53:18;35.65;;;15.80;;
15966;SDS011;15175;48.154;11.534;2024-02-28T15:59:21;35.95;;;16.30;;
15966;SDS011;15175;48.154;11.534;2024-02-28T16:05:26;33.72;;;16.23;;
15966;SDS011;15175;48.154;11.534;2024-02-28T16:11:29;34.67;;;16.25;;
15966;SDS011;15175;48.154;11.534;2024-02-28T16:17:33;29.35;;;15.00;;
15966;SDS011;15175;48.154;11.534;2024-02-28T16:23:35;34.78;;;16.65;;
15966;SDS011;15175;48.154;11.534;2024-02-28T16:29:37;36.35;;;16.20;;
15966;SDS011;15175;48.154;11.534;2024-02-28T16:35:41;33.30;;;15.85;;
15966;SDS011;15175;48.154;11.534;2024-02-28T16:41:44;37.15;;;15.50;;
15966;SDS011;15175;48.154;11.534;2024-02-28T16:47:46;31.67;;;14.27;;
15966;SDS011;15175;48.154;11.534;2024-02-28T16:53:50;34.15;;;15.95;;
15966;SDS011;15175;48.154;11.534;2024-02-28T16:59:52;35.58;;;16.10;;
15966;SDS011;15175;48.154;11.534;2024-02-28T17:05:54;33.70;;;15.13;;
15966;SDS011;15175;48.154;11.534;2024-02-28T17:11:58;41.58;;;15.82;;
15966;SDS011;15175;48.154;11.534;2024-02-28T17:18:00;37.67;;;16.27;;
15966;SDS011;15175;48.154;11.534;2024-02-28T17:24:03;31.92;;;15.30;;
15966;SDS011;15175;48.154;11.534;2024-02-28T17:30:08;34.13;;;16.00;;
15966;SDS011;15175;48.154;11.534;2024-02-28T17:36:11;34.05;;;16.05;;
15966;SDS011;15175;48.154;11.534;2024-02-28T17:42:13;35.03;;;17.13;;
15966;SDS011;15175;48.154;11.534;2024-02-28T17:48:17;37.67;;;17.15;;
15966;SDS011;15175;48.154;11.534;2024-02-28T17:54:19;39.80;;;16.92;;
15966;SDS011;15175;48.154;11.534;2024-02-28T18:00:22;37.40;;;17.60;;
15966;SDS011;15175;48.154;11.534;2024-02-28T18:06:27;37.15;;;18.13;;
15966;SDS011;15175;48.154;11.534;2024-02-28T18:12:29;35.90;;;16.38;;
15966;SDS011;15175;48.154;11.534;2024-02-28T18:18:32;38.00;;;17.30;;
15966;SDS011;15175;48.154;11.534;2024-02-28T18:24:36;38.55;;;16.52;;
15966;SDS011;15175;48.154;11.534;2024-02-28T18:30:39;41.13;;;17.95;;
15966;SDS011;15175;48.154;11.534;2024-02-28T18:36:42;41.20;;;18.58;;
15966;SDS011;15175;48.154;11.534;2024-02-28T18:42:47;35.47;;;17.17;;
15966;SDS011;15175;48.154;11.534;2024-02-28T18:48:49;41.17;;;17.63;;
15966;SDS011;15175;48.154;11.534;2024-02-28T18:54:52;41.40;;;17.90;;
15966;SDS011;15175;48.154;11.534;2024-02-28T19:00:55;36.55;;;16.98;;
15966;SDS011;15175;48.154;11.534;2024-02-28T19:06:58;36.45;;;16.30;;
15966;SDS011;15175;48.154;11.534;2024-02-28T19:13:00;40.22;;;17.50;;
15966;SDS011;15175;48.154;11.534;2024-02-28T19:19:04;41.90;;;17.83;;
15966;SDS011;15175;48.154;11.534;2024-02-28T19:25:06;43.85;;;19.38;;
15966;SDS011;15175;48.154;11.534;2024-02-28T19:31:09;41.45;;;18.17;;
15966;SDS011;15175;48.154;11.534;2024-02-28T19:37:15;38.03;;;16.80;;
15966;SDS011;15175;48.154;11.534;2024-02-28T19:43:18;34.72;;;16.30;;
15966;SDS011;15175;48.154;11.534;2024-02-28T19:49:20;40.97;;;18.38;;
15966;SDS011;15175;48.154;11.534;2024-02-28T19:55:24;39.38;;;17.98;;
15966;SDS011;15175;48.154;11.534;2024-02-28T20:01:26;40.13;;;17.58;;
15966;SDS011;15175;48.154;11.534;2024-02-28T20:07:29;38.97;;;17.73;;
15966;SDS011;15175;48.154;11.534;2024-02-28T20:13:32;31.70;;;14.65;;
15966;SDS011;15175;48.154;11.534;2024-02-28T20:19:35;37.70;;;16.35;;
15966;SDS011;15175;48.154;11.534;2024-02-28T20:25:37;33.53;;;14.35;;
15966;SDS011;15175;48.154;11.534;2024-02-28T20:31:41;36.33;;;16.67;;
15966;SDS011;15175;48.154;11.534;2024-02-28T20:37:43;36.53;;;15.07;;
15966;SDS011;15175;48.154;11.534;2024-02-28T20:43:46;40.60;;;16.75;;
15966;SDS011;15175;48.154;11.534;2024-02-28T20:49:51;36.83;;;15.95;;
15966;SDS011;15175;48.154;11.534;2024-02-28T20:55:53;41.08;;;16.13;;
15966;SDS011;15175;48.154;11.534;2024-02-28T21:08:00;36.55;;;15.90;;
15966;SDS011;15175;48.154;11.534;2024-02-28T21:14:02;33.42;;;15.15;;
15966;SDS011;15175;48.154;11.534;2024-02-28T21:20:05;40.35;;;17.42;;
15966;SDS011;15175;48.154;11.534;2024-02-28T21:32:12;38.00;;;15.73;;
15966;SDS011;15175;48.154;11.534;2024-02-28T21:38:14;40.33;;;17.17;;
15966;SDS011;15175;48.154;11.534;2024-02-28T21:44:18;46.53;;;17.63;;
15966;SDS011;15175;48.154;11.534;2024-02-28T21:50:21;36.08;;;17.08;;
15966;SDS011;15175;48.154;11.534;2024-02-28T21:56:24;37.53;;;16.27;;
15966;SDS011;15175;48.154;11.534;2024-02-28T22:02:28;42.55;;;18.33;;
15966;SDS011;15175;48.154;11.534;2024-02-28T22:08:30;42.97;;;18.25;;
15966;SDS011;15175;48.154;11.534;2024-02-28T22:14:32;48.05;;;17.80;;
15966;SDS011;15175;48.154;11.534;2024-02-28T22:20:36;40.58;;;18.45;;
15966;SDS011;15175;48.154;11.534;2024-02-28T22:26:38;40.17;;;18.75;;
15966;SDS011;15175;48.154;11.534;2024-02-28T22:32:40;37.15;;;16.98;;
15966;SDS011;15175;48.154;11.534;2024-02-28T22:38:44;41.22;;;16.85;;
15966;SDS011;15175;48.154;11.534;2024-02-28T22:44:47;39.28;;;17.00;;
15966;SDS011;15175;48.154;11.534;2024-02-28T22:50:49;36.78;;;16.27;;
15966;SDS011;15175;48.154;11.534;2024-02-28T22:56:53;39.58;;;16.98;;
15966;SDS011;15175;48.154;11.534;2024-02-28T23:08:59;44.03;;;17.00;;
15966;SDS011;15175;48.154;11.534;2024-02-28T23:15:03;37.70;;;16.95;;
15966;SDS011;15175;48.154;11.534;2024-02-28T23:21:07;40.50;;;16.60;;
15966;SDS011;15175;48.154;11.534;2024-02-28T23:27:10;39.08;;;16.80;;
15966;SDS011;15175;48.154;11.534;2024-02-28T23:33:13;34.78;;;15.43;;
15966;SDS011;15175;48.154;11.534;2024-02-28T23:45:17;36.58;;;16.05;;
15966;SDS011;15175;48.154;11.534;2024-02-28T23:51:21;36.17;;;15.60;;
